createdAt,value
2023-03-16T00:01:26.049Z,99253.47
2023-03-16T00:05:38.902Z,99250.88
2023-03-16T00:09:51.698Z,99251.78
2023-03-16T00:14:04.560Z,99253.53
2023-03-16T00:18:17.014Z,99255.25
2023-03-16T00:22:31.072Z,99251.56
2023-03-16T00:26:44.434Z,99252.53
2023-03-16T00:30:59.602Z,99251.66
2023-03-16T00:35:19.291Z,99253.41
2023-03-16T00:39:37.710Z,99257.59
2023-03-16T00:43:52.108Z,99264.63
2023-03-16T00:48:04.647Z,99264.72
2023-03-16T00:52:18.187Z,99268.97
2023-03-16T00:56:32.015Z,99274.75
2023-03-16T01:00:46.060Z,99283.56
2023-03-16T01:04:58.909Z,99285.97
2023-03-16T01:09:11.728Z,99285.28
2023-03-16T01:13:26.218Z,99284.41
2023-03-16T01:17:39.848Z,99284.38
2023-03-16T01:21:52.871Z,99292.38
2023-03-16T01:26:05.452Z,99295.81
2023-03-16T01:30:17.824Z,99304.63
2023-03-16T01:34:30.777Z,99294.97
2023-03-16T01:38:43.921Z,99302.91
2023-03-16T01:43:03.019Z,99301.28
2023-03-16T01:47:18.733Z,99297.69
2023-03-16T01:51:44.470Z,99299.38
2023-03-16T01:55:56.988Z,99317.09
2023-03-16T02:00:20.112Z,99314.53
2023-03-16T02:05:14.961Z,99321.50
2023-03-16T02:09:28.535Z,99323.25
2023-03-16T02:13:40.948Z,99324.09
2023-03-16T02:17:53.403Z,99325.75
2023-03-16T02:22:09.114Z,99333.72
2023-03-16T02:26:45.038Z,99341.66
2023-03-16T02:31:02.703Z,99356.56
2023-03-16T02:35:15.851Z,99353.88
2023-03-16T02:39:28.375Z,99366.34
2023-03-16T02:43:44.620Z,99370.78
2023-03-16T02:48:15.353Z,99376.97
2023-03-16T02:52:27.811Z,99376.16
2023-03-16T02:56:40.560Z,99389.34
2023-03-16T03:00:54.738Z,99388.41
2023-03-16T03:05:07.575Z,99404.22
2023-03-16T03:09:21.116Z,99405.00
2023-03-16T03:13:43.966Z,99416.59
2023-03-16T03:18:03.121Z,99423.69
2023-03-16T03:22:18.978Z,99427.31
2023-03-16T03:26:31.437Z,99441.41
2023-03-16T03:30:45.735Z,99436.91
2023-03-16T03:34:58.295Z,99453.72
2023-03-16T03:39:12.787Z,99461.63
2023-03-16T03:43:25.804Z,99462.47
2023-03-16T03:47:38.248Z,99459.00
2023-03-16T03:51:51.661Z,99460.75
2023-03-16T03:56:09.919Z,99470.50
2023-03-16T04:00:23.382Z,99477.56
2023-03-16T04:04:36.661Z,99475.66
2023-03-16T04:08:49.696Z,99479.16
2023-03-16T04:13:05.920Z,99477.47
2023-03-16T04:17:19.739Z,99499.56
2023-03-16T04:21:33.834Z,99512.78
2023-03-16T04:25:47.027Z,99503.94
2023-03-16T04:30:01.809Z,99501.25
2023-03-16T04:34:15.041Z,99511.84
2023-03-16T04:38:27.613Z,99520.69
2023-03-16T04:42:44.287Z,99520.56
2023-03-16T04:47:00.149Z,99528.44
2023-03-16T04:51:20.166Z,99533.66
2023-03-16T04:55:47.454Z,99533.63
2023-03-16T05:00:01.102Z,99541.53
2023-03-16T05:04:25.356Z,99539.78
2023-03-16T05:08:38.067Z,99551.28
2023-03-16T05:12:50.627Z,99545.97
2023-03-16T05:17:04.410Z,99549.44
2023-03-16T05:21:17.554Z,99554.63
2023-03-16T05:25:50.739Z,99558.09
2023-03-16T05:30:06.481Z,99564.22
2023-03-16T05:34:21.357Z,99569.44
2023-03-16T05:38:33.897Z,99571.19
2023-03-16T05:42:48.079Z,99581.72
2023-03-16T05:47:01.899Z,99582.44
2023-03-16T05:51:16.087Z,99604.38
2023-03-16T05:55:28.881Z,99598.16
2023-03-16T05:59:45.476Z,99601.66
2023-03-16T06:03:58.974Z,99614.78
2023-03-16T06:08:15.482Z,99614.75
2023-03-16T06:12:32.344Z,99618.13
2023-03-16T06:16:45.081Z,99633.88
2023-03-16T06:20:58.996Z,99633.59
2023-03-16T06:25:13.220Z,99640.56
2023-03-16T06:29:27.041Z,99648.53
2023-03-16T06:33:39.849Z,99662.53
2023-03-16T06:37:52.698Z,99665.09
2023-03-16T06:42:24.212Z,99666.78
2023-03-16T06:46:37.064Z,99674.13
2023-03-16T06:50:49.891Z,99678.28
2023-03-16T06:55:08.591Z,99684.28
2023-03-16T06:59:24.620Z,99689.69
2023-03-16T07:03:37.271Z,99692.09
2023-03-16T07:08:01.563Z,99701.00
2023-03-16T07:12:14.232Z,99710.28
2023-03-16T07:16:26.909Z,99719.09
2023-03-16T07:20:42.463Z,99719.72
2023-03-16T07:24:57.680Z,99718.53
2023-03-16T07:29:13.052Z,99724.94
2023-03-16T07:33:25.681Z,99736.47
2023-03-16T07:37:38.553Z,99735.59
2023-03-16T07:41:51.653Z,99736.84
2023-03-16T07:46:15.781Z,99740.59
2023-03-16T07:50:28.869Z,99750.72
2023-03-16T07:54:42.439Z,99755.28
2023-03-16T07:58:56.654Z,99749.41
2023-03-16T08:03:10.019Z,99761.50
2023-03-16T08:07:23.490Z,99763.84
2023-03-16T08:11:45.222Z,99755.63
2023-03-16T08:16:02.523Z,99758.22
2023-03-16T08:20:21.452Z,99758.34
2023-03-16T08:24:34.034Z,99754.69
2023-03-16T08:28:48.878Z,99755.31
2023-03-16T08:33:03.396Z,99765.34
2023-03-16T08:37:16.607Z,99773.59
2023-03-16T08:41:31.253Z,99776.16
2023-03-16T08:45:48.834Z,99780.88
2023-03-16T08:50:06.275Z,99782.06
2023-03-16T08:54:18.667Z,99785.28
2023-03-16T08:58:33.250Z,99789.81
2023-03-16T09:02:45.938Z,99796.00
2023-03-16T09:07:08.369Z,99802.38
2023-03-16T09:11:23.679Z,99801.72
2023-03-16T09:15:36.682Z,99805.66
2023-03-16T09:19:52.692Z,99810.72
2023-03-16T09:24:08.052Z,99810.34
2023-03-16T09:28:22.120Z,99813.03
2023-03-16T09:32:35.462Z,99810.63
2023-03-16T09:36:47.787Z,99810.91
2023-03-16T09:41:07.563Z,99818.28
2023-03-16T09:45:53.340Z,99821.16
2023-03-16T09:50:10.092Z,99822.69
2023-03-16T09:54:34.722Z,99830.31
2023-03-16T09:58:47.122Z,99833.28
2023-03-16T10:03:02.637Z,99836.06
2023-03-16T10:07:28.841Z,99839.41
2023-03-16T10:11:54.266Z,99847.91
2023-03-16T10:16:17.744Z,99839.97
2023-03-16T10:20:35.302Z,99848.19
2023-03-16T10:25:00.085Z,99843.69
2023-03-16T10:29:19.437Z,99850.47
2023-03-16T10:33:34.346Z,99842.81
2023-03-16T10:37:49.400Z,99862.28
2023-03-16T10:42:05.143Z,99874.94
2023-03-16T10:46:22.693Z,99876.47
2023-03-16T10:50:37.846Z,99877.66
2023-03-16T10:55:02.995Z,99874.19
2023-03-16T10:59:41.230Z,99871.53
2023-03-16T11:04:00.113Z,99874.06
2023-03-16T11:08:20.779Z,99874.06
2023-03-16T11:12:39.480Z,99878.56
2023-03-16T11:17:02.523Z,99868.47
2023-03-16T11:21:41.437Z,99874.19
2023-03-16T11:25:55.836Z,99873.84
2023-03-16T11:30:20.361Z,99856.53
2023-03-16T11:34:34.620Z,99866.72
2023-03-16T11:39:02.092Z,99874.66
2023-03-16T11:43:41.970Z,99878.34
2023-03-16T11:48:25.706Z,99866.72
2023-03-16T11:52:47.281Z,99863.53
2023-03-16T11:57:07.093Z,99859.91
2023-03-16T12:01:32.100Z,99867.16
2023-03-16T12:05:55.896Z,99867.09
2023-03-16T12:10:36.748Z,99867.03
2023-03-16T12:15:12.125Z,99868.50
2023-03-16T12:19:51.797Z,99870.59
2023-03-16T12:24:11.745Z,99862.28
2023-03-16T12:28:26.306Z,99870.75
2023-03-16T12:33:11.123Z,99872.09
2023-03-16T12:37:32.267Z,99868.06
2023-03-16T12:42:09.637Z,99874.38
2023-03-16T12:46:56.903Z,99874.41
2023-03-16T12:51:09.492Z,99877.94
2023-03-16T12:55:46.838Z,99889.50
2023-03-16T13:00:01.970Z,99878.88
2023-03-16T13:04:35.444Z,99882.56
2023-03-16T13:08:53.253Z,99888.34
2023-03-16T13:13:11.721Z,99890.59
2023-03-16T13:17:30.649Z,99893.50
2023-03-16T13:21:43.778Z,99892.31
2023-03-16T13:26:18.155Z,99899.88
2023-03-16T13:30:33.569Z,99894.47
2023-03-16T13:34:56.801Z,99901.50
2023-03-16T13:39:19.671Z,99901.97
2023-03-16T13:43:36.023Z,99909.16
2023-03-16T13:47:49.167Z,99904.66
2023-03-16T13:52:04.180Z,99915.22
2023-03-16T13:56:19.136Z,99920.06
2023-03-16T14:00:35.287Z,99937.09
2023-03-16T14:04:48.374Z,99934.75
2023-03-16T14:09:04.947Z,99935.84
2023-03-16T14:13:36.547Z,99933.31
2023-03-16T14:17:49.025Z,99931.00
2023-03-16T14:22:07.586Z,99941.44
2023-03-16T14:26:21.366Z,99933.50
2023-03-16T14:30:33.879Z,99937.84
2023-03-16T14:34:51.378Z,99952.75
2023-03-16T14:39:12.556Z,99942.22
2023-03-16T14:43:36.016Z,99957.88
2023-03-16T14:47:50.780Z,99951.81
2023-03-16T14:52:16.128Z,99951.59
2023-03-16T14:56:35.163Z,99959.06
2023-03-16T15:00:53.069Z,99960.25
2023-03-16T15:05:06.197Z,99965.19
2023-03-16T15:09:31.703Z,99977.75
2023-03-16T15:13:47.162Z,99980.38
2023-03-16T15:18:00.554Z,99978.50
2023-03-16T15:22:13.980Z,99986.09
2023-03-16T15:26:29.545Z,99993.06
2023-03-16T15:30:43.698Z,99994.47
2023-03-16T15:34:58.128Z,99991.50
2023-03-16T15:39:21.490Z,100001.78
2023-03-16T15:43:34.032Z,99997.22
2023-03-16T15:47:50.730Z,100011.16
2023-03-16T15:52:03.560Z,100011.22
2023-03-16T15:56:19.005Z,100011.69
2023-03-16T16:00:37.888Z,100022.25
2023-03-16T16:04:50.457Z,100024.69
2023-03-16T16:09:04.032Z,100036.47
2023-03-16T16:13:26.708Z,100041.19
2023-03-16T16:17:56.753Z,100049.41
2023-03-16T16:22:14.557Z,100047.84
2023-03-16T16:26:55.245Z,100050.72
2023-03-16T16:31:13.811Z,100055.34
2023-03-16T16:35:28.645Z,100064.34
2023-03-16T16:39:41.748Z,100075.22
2023-03-16T16:43:55.203Z,100066.53
2023-03-16T16:48:38.369Z,100085.25
2023-03-16T16:52:51.928Z,100083.66
2023-03-16T16:57:05.947Z,100090.84
2023-03-16T17:01:27.620Z,100091.78
2023-03-16T17:05:40.054Z,100091.94
2023-03-16T17:09:52.457Z,100096.50
2023-03-16T17:14:07.936Z,100099.16
2023-03-16T17:18:20.870Z,100109.78
2023-03-16T17:22:33.272Z,100103.63
2023-03-16T17:26:49.632Z,100105.53
2023-03-16T17:31:02.436Z,100110.88
2023-03-16T17:35:16.013Z,100121.53
2023-03-16T17:39:30.884Z,100127.69
2023-03-16T17:43:43.277Z,100137.56
2023-03-16T17:47:56.356Z,100142.00
2023-03-16T17:52:23.774Z,100146.44
2023-03-16T17:56:37.779Z,100155.38
2023-03-16T18:00:50.271Z,100157.94
2023-03-16T18:05:02.680Z,100165.94
2023-03-16T18:09:18.698Z,100170.31
2023-03-16T18:13:37.209Z,100185.31
2023-03-16T18:17:51.080Z,100186.19
2023-03-16T18:22:04.048Z,100202.06
2023-03-16T18:26:16.716Z,100193.28
2023-03-16T18:30:30.169Z,100190.66
2023-03-16T18:34:42.743Z,100194.16
2023-03-16T18:38:58.325Z,100196.00
2023-03-16T18:43:15.434Z,100201.31
2023-03-16T18:47:31.918Z,100200.47
2023-03-16T18:51:47.827Z,100211.97
2023-03-16T18:56:00.253Z,100222.53
2023-03-16T19:00:30.101Z,100226.91
2023-03-16T19:04:43.107Z,100233.09
2023-03-16T19:08:58.768Z,100218.13
2023-03-16T19:13:19.525Z,100233.13
2023-03-16T19:17:32.039Z,100237.53
2023-03-16T19:21:44.472Z,100245.47
2023-03-16T19:25:58.678Z,100248.13
2023-03-16T19:30:29.512Z,100257.81
2023-03-16T19:34:41.934Z,100257.81
2023-03-16T19:38:54.472Z,100261.34
2023-03-16T19:43:17.065Z,100257.81
2023-03-16T19:47:33.773Z,100262.25
2023-03-16T19:51:51.498Z,100263.09
2023-03-16T19:56:04.279Z,100267.53
2023-03-16T20:00:23.502Z,100272.75
2023-03-16T20:04:36.096Z,100269.22
2023-03-16T20:08:50.523Z,100278.91
2023-03-16T20:13:04.524Z,100285.06
2023-03-16T20:17:28.850Z,100297.34
2023-03-16T20:21:42.385Z,100294.69
2023-03-16T20:25:57.411Z,100298.22
2023-03-16T20:30:20.000Z,100306.09
2023-03-16T20:34:32.931Z,100299.88
2023-03-16T20:38:45.752Z,100303.47
2023-03-16T20:42:59.502Z,100304.28
2023-03-16T20:47:21.778Z,100302.50
2023-03-16T20:51:36.035Z,100298.13
2023-03-16T20:55:54.180Z,100307.78
2023-03-16T21:00:19.525Z,100307.69
2023-03-16T21:04:32.875Z,100306.81
2023-03-16T21:08:48.605Z,100305.09
2023-03-16T21:13:01.238Z,100310.28
2023-03-16T21:17:29.310Z,100315.41
2023-03-16T21:21:41.680Z,100320.53
2023-03-16T21:25:57.464Z,100315.28
2023-03-16T21:30:25.336Z,100324.91
2023-03-16T21:34:37.677Z,100325.81
2023-03-16T21:38:52.553Z,100332.81
2023-03-16T21:43:05.017Z,100319.00
2023-03-16T21:47:29.230Z,100324.16
2023-03-16T21:51:45.229Z,100316.25
2023-03-16T21:55:58.972Z,100315.34
2023-03-16T22:00:19.567Z,100321.59
2023-03-16T22:04:32.463Z,100316.88
2023-03-16T22:08:46.072Z,100322.91
2023-03-16T22:12:59.093Z,100315.81
2023-03-16T22:17:24.335Z,100327.38
2023-03-16T22:21:41.468Z,100329.00
2023-03-16T22:25:53.893Z,100317.59
2023-03-16T22:30:07.425Z,100320.41
2023-03-16T22:34:43.402Z,100322.25
2023-03-16T22:39:07.463Z,100325.53
2023-03-16T22:43:31.033Z,100320.41
2023-03-16T22:47:45.006Z,100331.97
2023-03-16T22:51:58.233Z,100332.63
2023-03-16T22:56:11.001Z,100329.19
2023-03-16T23:00:28.910Z,100340.34
2023-03-16T23:04:41.791Z,100330.72
2023-03-16T23:08:55.057Z,100335.19
2023-03-16T23:13:24.668Z,100329.31
2023-03-16T23:17:37.124Z,100330.72
2023-03-16T23:21:50.199Z,100329.19
2023-03-16T23:26:02.669Z,100330.81
2023-03-16T23:30:19.874Z,100339.50
2023-03-16T23:34:32.307Z,100340.94
2023-03-16T23:38:45.746Z,100332.22
2023-03-16T23:43:02.177Z,100335.66
2023-03-16T23:47:14.629Z,100333.75
2023-03-16T23:51:33.932Z,100337.78
2023-03-16T23:55:47.114Z,100340.88
2023-03-16T23:59:59.497Z,100347.78
